sensor_id;sensor_type;location;lat;lon;timestamp;P1;durP1;ratioP1;P2;durP2;ratioP2
38457;SDS011;24239;48.058;10.486;2023-07-30T00:02:17;3.22;;;2.88;;
38457;SDS011;24239;48.058;10.486;2023-07-30T00:04:44;4.32;;;2.78;;
38457;SDS011;24239;48.058;10.486;2023-07-30T00:07:10;3.38;;;2.80;;
38457;SDS011;24239;48.058;10.486;2023-07-30T00:09:37;4.72;;;2.67;;
38457;SDS011;24239;48.058;10.486;2023-07-30T00:12:03;3.28;;;2.83;;
38457;SDS011;24239;48.058;10.486;2023-07-30T00:14:30;3.88;;;2.67;;
38457;SDS011;24239;48.058;10.486;2023-07-30T00:16:56;4.15;;;2.72;;
38457;SDS011;24239;48.058;10.486;2023-07-30T00:19:21;4.57;;;3.15;;
38457;SDS011;24239;48.058;10.486;2023-07-30T00:21:47;3.40;;;3.10;;
38457;SDS011;24239;48.058;10.486;2023-07-30T00:24:13;3.30;;;2.88;;
38457;SDS011;24239;48.058;10.486;2023-07-30T00:26:39;4.43;;;3.03;;
38457;SDS011;24239;48.058;10.486;2023-07-30T00:29:04;3.30;;;3.00;;
38457;SDS011;24239;48.058;10.486;2023-07-30T00:31:30;4.20;;;3.15;;
38457;SDS011;24239;48.058;10.486;2023-07-30T00:33:56;4.70;;;3.00;;
38457;SDS011;24239;48.058;10.486;2023-07-30T00:36:22;3.90;;;3.03;;
38457;SDS011;24239;48.058;10.486;2023-07-30T00:38:47;5.10;;;2.80;;
38457;SDS011;24239;48.058;10.486;2023-07-30T00:41:13;4.57;;;3.17;;
38457;SDS011;24239;48.058;10.486;2023-07-30T00:43:39;4.22;;;3.53;;
38457;SDS011;24239;48.058;10.486;2023-07-30T00:46:04;4.43;;;3.35;;
38457;SDS011;24239;48.058;10.486;2023-07-30T00:48:31;5.82;;;3.17;;
38457;SDS011;24239;48.058;10.486;2023-07-30T00:50:57;3.40;;;2.88;;
38457;SDS011;24239;48.058;10.486;2023-07-30T00:53:27;4.65;;;3.15;;
38457;SDS011;24239;48.058;10.486;2023-07-30T00:55:53;3.33;;;2.92;;
38457;SDS011;24239;48.058;10.486;2023-07-30T00:58:20;5.65;;;2.75;;
38457;SDS011;24239;48.058;10.486;2023-07-30T01:00:46;3.10;;;2.80;;
38457;SDS011;24239;48.058;10.486;2023-07-30T01:03:13;5.15;;;3.08;;
38457;SDS011;24239;48.058;10.486;2023-07-30T01:05:39;3.28;;;2.78;;
38457;SDS011;24239;48.058;10.486;2023-07-30T01:08:05;4.32;;;2.78;;
38457;SDS011;24239;48.058;10.486;2023-07-30T01:10:30;4.93;;;3.05;;
38457;SDS011;24239;48.058;10.486;2023-07-30T01:12:59;5.18;;;2.90;;
38457;SDS011;24239;48.058;10.486;2023-07-30T01:15:34;2.83;;;2.47;;
38457;SDS011;24239;48.058;10.486;2023-07-30T01:18:00;4.63;;;3.20;;
38457;SDS011;24239;48.058;10.486;2023-07-30T01:20:29;3.22;;;2.83;;
38457;SDS011;24239;48.058;10.486;2023-07-30T01:23:01;3.22;;;2.92;;
38457;SDS011;24239;48.058;10.486;2023-07-30T01:25:30;3.63;;;2.70;;
38457;SDS011;24239;48.058;10.486;2023-07-30T01:27:59;4.20;;;3.30;;
38457;SDS011;24239;48.058;10.486;2023-07-30T01:30:32;4.35;;;3.10;;
38457;SDS011;24239;48.058;10.486;2023-07-30T01:33:03;3.85;;;2.90;;
38457;SDS011;24239;48.058;10.486;2023-07-30T01:35:31;3.40;;;3.10;;
38457;SDS011;24239;48.058;10.486;2023-07-30T01:37:57;4.35;;;2.90;;
38457;SDS011;24239;48.058;10.486;2023-07-30T01:40:24;4.88;;;2.80;;
38457;SDS011;24239;48.058;10.486;2023-07-30T01:42:50;4.25;;;2.97;;
38457;SDS011;24239;48.058;10.486;2023-07-30T01:45:16;3.25;;;2.90;;
38457;SDS011;24239;48.058;10.486;2023-07-30T01:47:42;4.80;;;2.92;;
38457;SDS011;24239;48.058;10.486;2023-07-30T01:50:08;3.88;;;2.97;;
38457;SDS011;24239;48.058;10.486;2023-07-30T01:52:36;4.28;;;2.70;;
38457;SDS011;24239;48.058;10.486;2023-07-30T01:55:02;4.53;;;2.85;;
38457;SDS011;24239;48.058;10.486;2023-07-30T01:57:28;3.60;;;2.92;;
38457;SDS011;24239;48.058;10.486;2023-07-30T01:59:54;4.07;;;2.70;;
38457;SDS011;24239;48.058;10.486;2023-07-30T02:02:20;4.13;;;2.90;;
38457;SDS011;24239;48.058;10.486;2023-07-30T02:04:46;3.42;;;3.00;;
38457;SDS011;24239;48.058;10.486;2023-07-30T02:07:11;3.25;;;2.65;;
38457;SDS011;24239;48.058;10.486;2023-07-30T02:09:37;4.18;;;3.25;;
38457;SDS011;24239;48.058;10.486;2023-07-30T02:12:03;6.45;;;2.95;;
38457;SDS011;24239;48.058;10.486;2023-07-30T02:14:29;2.97;;;2.67;;
38457;SDS011;24239;48.058;10.486;2023-07-30T02:16:54;4.15;;;3.05;;
38457;SDS011;24239;48.058;10.486;2023-07-30T02:19:20;3.22;;;2.92;;
38457;SDS011;24239;48.058;10.486;2023-07-30T02:21:46;3.55;;;2.90;;
38457;SDS011;24239;48.058;10.486;2023-07-30T02:24:12;3.55;;;2.90;;
38457;SDS011;24239;48.058;10.486;2023-07-30T02:26:38;4.25;;;3.28;;
38457;SDS011;24239;48.058;10.486;2023-07-30T02:29:04;5.13;;;3.22;;
38457;SDS011;24239;48.058;10.486;2023-07-30T02:31:30;4.18;;;3.13;;
38457;SDS011;24239;48.058;10.486;2023-07-30T02:33:56;3.80;;;3.20;;
38457;SDS011;24239;48.058;10.486;2023-07-30T02:36:22;3.83;;;3.22;;
38457;SDS011;24239;48.058;10.486;2023-07-30T02:38:48;4.10;;;3.35;;
38457;SDS011;24239;48.058;10.486;2023-07-30T02:41:14;5.20;;;3.42;;
38457;SDS011;24239;48.058;10.486;2023-07-30T02:43:40;3.72;;;3.28;;
38457;SDS011;24239;48.058;10.486;2023-07-30T02:46:06;4.25;;;3.17;;
38457;SDS011;24239;48.058;10.486;2023-07-30T02:48:32;3.63;;;3.20;;
38457;SDS011;24239;48.058;10.486;2023-07-30T02:51:01;3.58;;;3.00;;
38457;SDS011;24239;48.058;10.486;2023-07-30T02:53:27;4.03;;;3.13;;
38457;SDS011;24239;48.058;10.486;2023-07-30T02:55:52;8.82;;;3.60;;
38457;SDS011;24239;48.058;10.486;2023-07-30T02:58:18;6.38;;;3.15;;
38457;SDS011;24239;48.058;10.486;2023-07-30T03:00:44;3.10;;;2.80;;
38457;SDS011;24239;48.058;10.486;2023-07-30T03:03:09;6.55;;;3.50;;
38457;SDS011;24239;48.058;10.486;2023-07-30T03:05:35;5.13;;;3.08;;
38457;SDS011;24239;48.058;10.486;2023-07-30T03:08:01;3.80;;;2.88;;
38457;SDS011;24239;48.058;10.486;2023-07-30T03:10:27;5.32;;;3.28;;
38457;SDS011;24239;48.058;10.486;2023-07-30T03:12:52;6.65;;;3.65;;
38457;SDS011;24239;48.058;10.486;2023-07-30T03:15:18;4.97;;;3.38;;
38457;SDS011;24239;48.058;10.486;2023-07-30T03:17:44;4.13;;;3.50;;
38457;SDS011;24239;48.058;10.486;2023-07-30T03:20:10;4.65;;;3.45;;
38457;SDS011;24239;48.058;10.486;2023-07-30T03:22:35;3.65;;;3.25;;
38457;SDS011;24239;48.058;10.486;2023-07-30T03:25:01;5.25;;;3.80;;
38457;SDS011;24239;48.058;10.486;2023-07-30T03:27:27;3.80;;;3.40;;
38457;SDS011;24239;48.058;10.486;2023-07-30T03:29:53;6.00;;;3.78;;
38457;SDS011;24239;48.058;10.486;2023-07-30T03:32:19;4.07;;;3.20;;
38457;SDS011;24239;48.058;10.486;2023-07-30T03:34:45;3.90;;;3.50;;
38457;SDS011;24239;48.058;10.486;2023-07-30T03:37:10;4.68;;;3.45;;
38457;SDS011;24239;48.058;10.486;2023-07-30T03:39:36;4.40;;;3.55;;
38457;SDS011;24239;48.058;10.486;2023-07-30T03:42:02;3.63;;;3.15;;
38457;SDS011;24239;48.058;10.486;2023-07-30T03:44:28;5.70;;;3.45;;
38457;SDS011;24239;48.058;10.486;2023-07-30T03:46:53;4.70;;;3.47;;
38457;SDS011;24239;48.058;10.486;2023-07-30T03:49:19;5.80;;;3.60;;
38457;SDS011;24239;48.058;10.486;2023-07-30T03:51:45;5.57;;;3.92;;
38457;SDS011;24239;48.058;10.486;2023-07-30T03:54:12;5.32;;;3.75;;
38457;SDS011;24239;48.058;10.486;2023-07-30T03:56:38;7.15;;;3.83;;
38457;SDS011;24239;48.058;10.486;2023-07-30T03:59:04;5.63;;;4.07;;
38457;SDS011;24239;48.058;10.486;2023-07-30T04:01:30;6.82;;;3.85;;
38457;SDS011;24239;48.058;10.486;2023-07-30T04:03:56;6.78;;;3.90;;
38457;SDS011;24239;48.058;10.486;2023-07-30T04:06:22;4.60;;;3.22;;
38457;SDS011;24239;48.058;10.486;2023-07-30T04:08:47;6.30;;;3.85;;
38457;SDS011;24239;48.058;10.486;2023-07-30T04:11:13;4.65;;;3.58;;
38457;SDS011;24239;48.058;10.486;2023-07-30T04:13:39;3.45;;;3.08;;
38457;SDS011;24239;48.058;10.486;2023-07-30T04:16:06;9.20;;;3.65;;
38457;SDS011;24239;48.058;10.486;2023-07-30T04:18:31;4.50;;;3.30;;
38457;SDS011;24239;48.058;10.486;2023-07-30T04:21:00;5.28;;;3.40;;
38457;SDS011;24239;48.058;10.486;2023-07-30T04:23:26;4.53;;;3.65;;
38457;SDS011;24239;48.058;10.486;2023-07-30T04:25:52;3.70;;;3.40;;
38457;SDS011;24239;48.058;10.486;2023-07-30T04:28:17;3.72;;;3.33;;
38457;SDS011;24239;48.058;10.486;2023-07-30T04:30:43;4.82;;;3.13;;
38457;SDS011;24239;48.058;10.486;2023-07-30T04:33:09;4.25;;;2.80;;
38457;SDS011;24239;48.058;10.486;2023-07-30T04:35:35;3.88;;;3.03;;
38457;SDS011;24239;48.058;10.486;2023-07-30T04:38:01;4.10;;;2.95;;
38457;SDS011;24239;48.058;10.486;2023-07-30T04:40:27;3.95;;;3.17;;
38457;SDS011;24239;48.058;10.486;2023-07-30T04:42:52;6.20;;;3.10;;
38457;SDS011;24239;48.058;10.486;2023-07-30T04:45:18;4.97;;;2.75;;
38457;SDS011;24239;48.058;10.486;2023-07-30T04:47:44;2.97;;;2.55;;
38457;SDS011;24239;48.058;10.486;2023-07-30T04:50:10;5.22;;;2.95;;
38457;SDS011;24239;48.058;10.486;2023-07-30T04:52:37;6.72;;;2.67;;
38457;SDS011;24239;48.058;10.486;2023-07-30T04:55:03;3.33;;;2.50;;
38457;SDS011;24239;48.058;10.486;2023-07-30T04:57:29;3.58;;;2.67;;
38457;SDS011;24239;48.058;10.486;2023-07-30T04:59:55;2.42;;;2.17;;
38457;SDS011;24239;48.058;10.486;2023-07-30T05:02:20;2.58;;;2.38;;
38457;SDS011;24239;48.058;10.486;2023-07-30T05:04:46;2.38;;;2.17;;
38457;SDS011;24239;48.058;10.486;2023-07-30T05:07:12;4.25;;;2.53;;
38457;SDS011;24239;48.058;10.486;2023-07-30T05:09:38;3.42;;;2.40;;
38457;SDS011;24239;48.058;10.486;2023-07-30T05:12:03;3.85;;;2.20;;
38457;SDS011;24239;48.058;10.486;2023-07-30T05:14:29;3.45;;;2.30;;
38457;SDS011;24239;48.058;10.486;2023-07-30T05:16:55;3.38;;;2.50;;
38457;SDS011;24239;48.058;10.486;2023-07-30T05:19:21;3.90;;;2.20;;
38457;SDS011;24239;48.058;10.486;2023-07-30T05:21:47;2.65;;;2.40;;
38457;SDS011;24239;48.058;10.486;2023-07-30T05:24:12;3.22;;;2.58;;
38457;SDS011;24239;48.058;10.486;2023-07-30T05:26:38;3.60;;;2.53;;
38457;SDS011;24239;48.058;10.486;2023-07-30T05:29:04;5.32;;;2.55;;
38457;SDS011;24239;48.058;10.486;2023-07-30T05:31:30;4.13;;;2.40;;
38457;SDS011;24239;48.058;10.486;2023-07-30T05:33:55;2.78;;;2.47;;
38457;SDS011;24239;48.058;10.486;2023-07-30T05:36:21;3.10;;;2.60;;
38457;SDS011;24239;48.058;10.486;2023-07-30T05:38:47;7.30;;;2.45;;
38457;SDS011;24239;48.058;10.486;2023-07-30T05:41:13;3.45;;;2.53;;
38457;SDS011;24239;48.058;10.486;2023-07-30T05:43:38;3.20;;;2.30;;
38457;SDS011;24239;48.058;10.486;2023-07-30T05:46:04;3.58;;;2.55;;
38457;SDS011;24239;48.058;10.486;2023-07-30T05:48:30;3.70;;;2.70;;
38457;SDS011;24239;48.058;10.486;2023-07-30T05:50:56;3.15;;;2.20;;
38457;SDS011;24239;48.058;10.486;2023-07-30T05:53:21;3.50;;;2.42;;
38457;SDS011;24239;48.058;10.486;2023-07-30T05:55:47;3.58;;;2.15;;
38457;SDS011;24239;48.058;10.486;2023-07-30T05:58:13;3.25;;;2.38;;
38457;SDS011;24239;48.058;10.486;2023-07-30T06:00:39;2.50;;;2.30;;
38457;SDS011;24239;48.058;10.486;2023-07-30T06:03:04;2.88;;;2.50;;
38457;SDS011;24239;48.058;10.486;2023-07-30T06:05:31;2.38;;;2.10;;
38457;SDS011;24239;48.058;10.486;2023-07-30T06:07:57;2.80;;;2.55;;
38457;SDS011;24239;48.058;10.486;2023-07-30T06:10:24;3.10;;;2.80;;
38457;SDS011;24239;48.058;10.486;2023-07-30T06:12:50;3.13;;;2.53;;
38457;SDS011;24239;48.058;10.486;2023-07-30T06:15:16;2.67;;;2.33;;
38457;SDS011;24239;48.058;10.486;2023-07-30T06:17:41;2.53;;;2.33;;
38457;SDS011;24239;48.058;10.486;2023-07-30T06:20:07;3.80;;;2.40;;
38457;SDS011;24239;48.058;10.486;2023-07-30T06:22:34;2.90;;;2.53;;
38457;SDS011;24239;48.058;10.486;2023-07-30T06:24:59;3.78;;;2.67;;
38457;SDS011;24239;48.058;10.486;2023-07-30T06:27:25;4.40;;;2.10;;
38457;SDS011;24239;48.058;10.486;2023-07-30T06:29:51;2.78;;;2.30;;
38457;SDS011;24239;48.058;10.486;2023-07-30T06:32:17;5.00;;;2.55;;
38457;SDS011;24239;48.058;10.486;2023-07-30T06:34:42;3.08;;;2.40;;
38457;SDS011;24239;48.058;10.486;2023-07-30T06:37:08;2.60;;;2.40;;
38457;SDS011;24239;48.058;10.486;2023-07-30T06:39:34;2.90;;;2.60;;
38457;SDS011;24239;48.058;10.486;2023-07-30T06:42:00;4.13;;;2.85;;
38457;SDS011;24239;48.058;10.486;2023-07-30T06:44:26;3.70;;;2.80;;
38457;SDS011;24239;48.058;10.486;2023-07-30T06:46:51;5.60;;;2.75;;
38457;SDS011;24239;48.058;10.486;2023-07-30T06:49:17;6.22;;;2.42;;
38457;SDS011;24239;48.058;10.486;2023-07-30T06:51:45;3.40;;;2.60;;
38457;SDS011;24239;48.058;10.486;2023-07-30T06:54:11;5.57;;;2.78;;
38457;SDS011;24239;48.058;10.486;2023-07-30T06:56:37;4.38;;;3.08;;
38457;SDS011;24239;48.058;10.486;2023-07-30T06:59:03;2.67;;;2.42;;
38457;SDS011;24239;48.058;10.486;2023-07-30T07:01:29;4.15;;;2.88;;
38457;SDS011;24239;48.058;10.486;2023-07-30T07:03:54;3.50;;;2.80;;
38457;SDS011;24239;48.058;10.486;2023-07-30T07:06:20;3.05;;;2.45;;
38457;SDS011;24239;48.058;10.486;2023-07-30T07:08:46;4.13;;;2.30;;
38457;SDS011;24239;48.058;10.486;2023-07-30T07:11:12;3.10;;;2.10;;
38457;SDS011;24239;48.058;10.486;2023-07-30T07:13:37;3.00;;;2.40;;
38457;SDS011;24239;48.058;10.486;2023-07-30T07:16:03;3.35;;;2.80;;
38457;SDS011;24239;48.058;10.486;2023-07-30T07:18:29;4.20;;;2.42;;
38457;SDS011;24239;48.058;10.486;2023-07-30T07:20:55;6.68;;;2.90;;
38457;SDS011;24239;48.058;10.486;2023-07-30T07:23:21;4.85;;;2.92;;
38457;SDS011;24239;48.058;10.486;2023-07-30T07:25:46;3.58;;;2.28;;
38457;SDS011;24239;48.058;10.486;2023-07-30T07:28:12;3.55;;;2.70;;
38457;SDS011;24239;48.058;10.486;2023-07-30T07:30:38;3.10;;;2.22;;
38457;SDS011;24239;48.058;10.486;2023-07-30T07:33:04;3.38;;;2.67;;
38457;SDS011;24239;48.058;10.486;2023-07-30T07:35:37;3.10;;;2.53;;
38457;SDS011;24239;48.058;10.486;2023-07-30T07:38:06;3.17;;;2.35;;
38457;SDS011;24239;48.058;10.486;2023-07-30T07:40:38;3.83;;;2.40;;
38457;SDS011;24239;48.058;10.486;2023-07-30T07:43:07;4.85;;;2.67;;
38457;SDS011;24239;48.058;10.486;2023-07-30T07:45:33;3.72;;;2.20;;
38457;SDS011;24239;48.058;10.486;2023-07-30T07:47:59;2.75;;;2.13;;
38457;SDS011;24239;48.058;10.486;2023-07-30T07:50:25;3.80;;;2.50;;
38457;SDS011;24239;48.058;10.486;2023-07-30T07:52:51;2.65;;;2.20;;
38457;SDS011;24239;48.058;10.486;2023-07-30T07:55:17;2.55;;;2.28;;
38457;SDS011;24239;48.058;10.486;2023-07-30T07:57:42;2.92;;;2.40;;
38457;SDS011;24239;48.058;10.486;2023-07-30T08:00:08;2.47;;;2.20;;
38457;SDS011;24239;48.058;10.486;2023-07-30T08:02:34;2.47;;;2.05;;
38457;SDS011;24239;48.058;10.486;2023-07-30T08:05:00;2.75;;;2.28;;
38457;SDS011;24239;48.058;10.486;2023-07-30T08:07:26;4.75;;;2.20;;
38457;SDS011;24239;48.058;10.486;2023-07-30T08:09:55;3.47;;;1.90;;
38457;SDS011;24239;48.058;10.486;2023-07-30T08:12:21;3.70;;;2.22;;
38457;SDS011;24239;48.058;10.486;2023-07-30T08:14:46;3.17;;;2.40;;
38457;SDS011;24239;48.058;10.486;2023-07-30T08:17:12;3.70;;;2.40;;
38457;SDS011;24239;48.058;10.486;2023-07-30T08:19:38;3.72;;;1.92;;
38457;SDS011;24239;48.058;10.486;2023-07-30T08:22:07;4.97;;;2.08;;
38457;SDS011;24239;48.058;10.486;2023-07-30T08:24:32;2.30;;;2.10;;
38457;SDS011;24239;48.058;10.486;2023-07-30T08:26:58;3.25;;;2.20;;
38457;SDS011;24239;48.058;10.486;2023-07-30T08:29:24;3.67;;;2.00;;
38457;SDS011;24239;48.058;10.486;2023-07-30T08:31:50;2.40;;;2.10;;
38457;SDS011;24239;48.058;10.486;2023-07-30T08:34:15;2.60;;;2.00;;
38457;SDS011;24239;48.058;10.486;2023-07-30T08:36:41;2.97;;;1.70;;
38457;SDS011;24239;48.058;10.486;2023-07-30T08:39:07;3.20;;;2.03;;
38457;SDS011;24239;48.058;10.486;2023-07-30T08:41:33;4.68;;;2.55;;
38457;SDS011;24239;48.058;10.486;2023-07-30T08:43:59;4.72;;;2.10;;
38457;SDS011;24239;48.058;10.486;2023-07-30T08:46:26;3.67;;;1.85;;
38457;SDS011;24239;48.058;10.486;2023-07-30T08:48:52;3.10;;;2.15;;
38457;SDS011;24239;48.058;10.486;2023-07-30T08:51:19;3.35;;;1.77;;
38457;SDS011;24239;48.058;10.486;2023-07-30T08:53:46;4.40;;;2.10;;
38457;SDS011;24239;48.058;10.486;2023-07-30T08:56:13;2.78;;;2.00;;
38457;SDS011;24239;48.058;10.486;2023-07-30T08:58:39;3.80;;;2.03;;
38457;SDS011;24239;48.058;10.486;2023-07-30T09:01:09;3.03;;;1.98;;
38457;SDS011;24239;48.058;10.486;2023-07-30T09:03:40;2.25;;;1.98;;
38457;SDS011;24239;48.058;10.486;2023-07-30T09:06:06;2.28;;;1.88;;
38457;SDS011;24239;48.058;10.486;2023-07-30T09:08:32;1.95;;;1.60;;
38457;SDS011;24239;48.058;10.486;2023-07-30T09:11:08;2.65;;;1.95;;
38457;SDS011;24239;48.058;10.486;2023-07-30T09:13:38;1.85;;;1.73;;
38457;SDS011;24239;48.058;10.486;2023-07-30T09:16:11;2.15;;;1.88;;
38457;SDS011;24239;48.058;10.486;2023-07-30T09:18:41;2.08;;;1.88;;
38457;SDS011;24239;48.058;10.486;2023-07-30T09:21:12;2.72;;;1.88;;
38457;SDS011;24239;48.058;10.486;2023-07-30T09:23:39;2.55;;;2.00;;
38457;SDS011;24239;48.058;10.486;2023-07-30T09:26:09;2.28;;;1.75;;
38457;SDS011;24239;48.058;10.486;2023-07-30T09:28:35;3.88;;;2.03;;
38457;SDS011;24239;48.058;10.486;2023-07-30T09:31:01;2.03;;;1.70;;
38457;SDS011;24239;48.058;10.486;2023-07-30T09:33:28;2.70;;;1.95;;
38457;SDS011;24239;48.058;10.486;2023-07-30T09:35:54;2.70;;;2.10;;
38457;SDS011;24239;48.058;10.486;2023-07-30T09:38:20;4.85;;;2.00;;
38457;SDS011;24239;48.058;10.486;2023-07-30T09:40:46;4.68;;;2.17;;
38457;SDS011;24239;48.058;10.486;2023-07-30T09:43:15;2.17;;;1.98;;
38457;SDS011;24239;48.058;10.486;2023-07-30T09:45:43;2.55;;;2.03;;
38457;SDS011;24239;48.058;10.486;2023-07-30T09:48:12;2.88;;;2.25;;
38457;SDS011;24239;48.058;10.486;2023-07-30T09:50:39;3.28;;;2.13;;
38457;SDS011;24239;48.058;10.486;2023-07-30T09:53:05;2.60;;;1.67;;
38457;SDS011;24239;48.058;10.486;2023-07-30T09:55:32;2.78;;;2.17;;
38457;SDS011;24239;48.058;10.486;2023-07-30T09:58:01;2.70;;;2.08;;
38457;SDS011;24239;48.058;10.486;2023-07-30T10:00:27;1.92;;;1.65;;
38457;SDS011;24239;48.058;10.486;2023-07-30T10:02:55;3.30;;;1.90;;
38457;SDS011;24239;48.058;10.486;2023-07-30T10:05:24;2.05;;;1.70;;
38457;SDS011;24239;48.058;10.486;2023-07-30T10:07:59;2.15;;;1.23;;
38457;SDS011;24239;48.058;10.486;2023-07-30T10:10:29;2.85;;;1.65;;
38457;SDS011;24239;48.058;10.486;2023-07-30T10:12:56;1.95;;;1.38;;
38457;SDS011;24239;48.058;10.486;2023-07-30T10:15:26;1.40;;;1.30;;
38457;SDS011;24239;48.058;10.486;2023-07-30T10:17:52;4.82;;;1.80;;
38457;SDS011;24239;48.058;10.486;2023-07-30T10:20:21;2.40;;;1.88;;
38457;SDS011;24239;48.058;10.486;2023-07-30T10:22:55;1.83;;;1.65;;
38457;SDS011;24239;48.058;10.486;2023-07-30T10:25:30;3.08;;;1.65;;
38457;SDS011;24239;48.058;10.486;2023-07-30T10:28:08;2.08;;;1.70;;
38457;SDS011;24239;48.058;10.486;2023-07-30T10:30:34;1.80;;;1.45;;
38457;SDS011;24239;48.058;10.486;2023-07-30T10:33:03;2.13;;;1.52;;
38457;SDS011;24239;48.058;10.486;2023-07-30T10:35:44;3.22;;;1.33;;
38457;SDS011;24239;48.058;10.486;2023-07-30T10:38:17;1.50;;;1.33;;
38457;SDS011;24239;48.058;10.486;2023-07-30T10:43:29;2.90;;;1.45;;
38457;SDS011;24239;48.058;10.486;2023-07-30T10:45:56;1.77;;;1.58;;
38457;SDS011;24239;48.058;10.486;2023-07-30T10:51:05;1.73;;;1.40;;
38457;SDS011;24239;48.058;10.486;2023-07-30T10:53:32;3.40;;;1.70;;
38457;SDS011;24239;48.058;10.486;2023-07-30T10:56:01;2.65;;;1.98;;
38457;SDS011;24239;48.058;10.486;2023-07-30T10:58:37;1.95;;;1.67;;
38457;SDS011;24239;48.058;10.486;2023-07-30T11:01:04;2.67;;;1.60;;
38457;SDS011;24239;48.058;10.486;2023-07-30T11:03:30;2.13;;;1.80;;
38457;SDS011;24239;48.058;10.486;2023-07-30T11:06:02;4.25;;;1.80;;
38457;SDS011;24239;48.058;10.486;2023-07-30T11:08:32;2.10;;;1.80;;
38457;SDS011;24239;48.058;10.486;2023-07-30T11:10:59;2.15;;;1.90;;
38457;SDS011;24239;48.058;10.486;2023-07-30T11:13:25;1.95;;;1.75;;
38457;SDS011;24239;48.058;10.486;2023-07-30T11:15:51;3.17;;;1.65;;
38457;SDS011;24239;48.058;10.486;2023-07-30T11:18:17;3.03;;;1.70;;
38457;SDS011;24239;48.058;10.486;2023-07-30T11:20:43;2.00;;;1.80;;
38457;SDS011;24239;48.058;10.486;2023-07-30T11:23:22;3.05;;;1.80;;
38457;SDS011;24239;48.058;10.486;2023-07-30T11:25:49;3.28;;;1.85;;
38457;SDS011;24239;48.058;10.486;2023-07-30T11:28:26;2.90;;;1.90;;
38457;SDS011;24239;48.058;10.486;2023-07-30T11:30:53;1.92;;;1.70;;
38457;SDS011;24239;48.058;10.486;2023-07-30T11:33:19;3.47;;;1.92;;
38457;SDS011;24239;48.058;10.486;2023-07-30T11:35:45;2.17;;;1.92;;
38457;SDS011;24239;48.058;10.486;2023-07-30T11:38:11;6.93;;;2.10;;
38457;SDS011;24239;48.058;10.486;2023-07-30T11:40:39;2.60;;;1.70;;
38457;SDS011;24239;48.058;10.486;2023-07-30T11:43:05;2.10;;;1.83;;
38457;SDS011;24239;48.058;10.486;2023-07-30T11:45:31;2.35;;;1.80;;
38457;SDS011;24239;48.058;10.486;2023-07-30T11:48:07;5.35;;;1.90;;
38457;SDS011;24239;48.058;10.486;2023-07-30T11:50:47;4.97;;;2.00;;
38457;SDS011;24239;48.058;10.486;2023-07-30T11:53:42;2.28;;;1.80;;
38457;SDS011;24239;48.058;10.486;2023-07-30T11:56:16;1.85;;;1.70;;
38457;SDS011;24239;48.058;10.486;2023-07-30T11:58:49;3.63;;;1.80;;
38457;SDS011;24239;48.058;10.486;2023-07-30T12:01:16;3.58;;;1.50;;
38457;SDS011;24239;48.058;10.486;2023-07-30T12:03:43;2.03;;;1.65;;
38457;SDS011;24239;48.058;10.486;2023-07-30T12:06:10;1.77;;;1.60;;
38457;SDS011;24239;48.058;10.486;2023-07-30T12:08:36;2.15;;;1.85;;
38457;SDS011;24239;48.058;10.486;2023-07-30T12:11:03;3.03;;;2.10;;
38457;SDS011;24239;48.058;10.486;2023-07-30T12:13:32;4.15;;;1.90;;
38457;SDS011;24239;48.058;10.486;2023-07-30T12:15:59;3.17;;;1.98;;
38457;SDS011;24239;48.058;10.486;2023-07-30T12:18:25;2.25;;;2.00;;
38457;SDS011;24239;48.058;10.486;2023-07-30T12:20:53;1.77;;;1.67;;
38457;SDS011;24239;48.058;10.486;2023-07-30T12:23:19;1.90;;;1.70;;
38457;SDS011;24239;48.058;10.486;2023-07-30T12:25:45;3.78;;;2.03;;
38457;SDS011;24239;48.058;10.486;2023-07-30T12:28:12;2.13;;;1.73;;
38457;SDS011;24239;48.058;10.486;2023-07-30T12:30:38;2.65;;;2.28;;
38457;SDS011;24239;48.058;10.486;2023-07-30T12:33:04;2.42;;;2.00;;
38457;SDS011;24239;48.058;10.486;2023-07-30T12:35:31;2.40;;;2.10;;
38457;SDS011;24239;48.058;10.486;2023-07-30T12:37:58;2.15;;;1.95;;
38457;SDS011;24239;48.058;10.486;2023-07-30T12:40:24;3.90;;;2.17;;
38457;SDS011;24239;48.058;10.486;2023-07-30T12:42:50;3.05;;;2.25;;
38457;SDS011;24239;48.058;10.486;2023-07-30T12:45:16;3.45;;;2.10;;
38457;SDS011;24239;48.058;10.486;2023-07-30T12:47:42;4.10;;;2.10;;
38457;SDS011;24239;48.058;10.486;2023-07-30T12:50:10;3.95;;;1.92;;
38457;SDS011;24239;48.058;10.486;2023-07-30T12:52:36;3.33;;;1.95;;
38457;SDS011;24239;48.058;10.486;2023-07-30T12:55:02;4.78;;;2.20;;
38457;SDS011;24239;48.058;10.486;2023-07-30T12:57:31;2.85;;;1.95;;
38457;SDS011;24239;48.058;10.486;2023-07-30T12:59:57;3.45;;;1.80;;
38457;SDS011;24239;48.058;10.486;2023-07-30T13:02:23;5.00;;;2.10;;
38457;SDS011;24239;48.058;10.486;2023-07-30T13:04:51;2.45;;;2.00;;
38457;SDS011;24239;48.058;10.486;2023-07-30T13:07:17;2.63;;;1.90;;
38457;SDS011;24239;48.058;10.486;2023-07-30T13:09:42;4.35;;;1.83;;
38457;SDS011;24239;48.058;10.486;2023-07-30T13:12:08;3.53;;;1.70;;
38457;SDS011;24239;48.058;10.486;2023-07-30T13:14:34;3.00;;;1.65;;
38457;SDS011;24239;48.058;10.486;2023-07-30T13:17:00;2.22;;;1.83;;
38457;SDS011;24239;48.058;10.486;2023-07-30T13:19:25;2.17;;;1.92;;
38457;SDS011;24239;48.058;10.486;2023-07-30T13:21:53;2.58;;;1.85;;
38457;SDS011;24239;48.058;10.486;2023-07-30T13:24:18;2.60;;;2.03;;
38457;SDS011;24239;48.058;10.486;2023-07-30T13:26:44;4.28;;;2.08;;
38457;SDS011;24239;48.058;10.486;2023-07-30T13:29:10;2.53;;;2.20;;
38457;SDS011;24239;48.058;10.486;2023-07-30T13:31:36;3.13;;;2.10;;
38457;SDS011;24239;48.058;10.486;2023-07-30T13:34:02;2.38;;;2.00;;
38457;SDS011;24239;48.058;10.486;2023-07-30T13:36:27;2.65;;;2.03;;
38457;SDS011;24239;48.058;10.486;2023-07-30T13:38:53;2.40;;;2.17;;
38457;SDS011;24239;48.058;10.486;2023-07-30T13:41:20;2.10;;;1.88;;
38457;SDS011;24239;48.058;10.486;2023-07-30T13:43:45;5.20;;;2.35;;
38457;SDS011;24239;48.058;10.486;2023-07-30T13:46:11;3.17;;;2.53;;
38457;SDS011;24239;48.058;10.486;2023-07-30T13:48:37;2.65;;;2.20;;
38457;SDS011;24239;48.058;10.486;2023-07-30T13:51:02;3.67;;;2.25;;
38457;SDS011;24239;48.058;10.486;2023-07-30T13:53:28;3.72;;;2.30;;
38457;SDS011;24239;48.058;10.486;2023-07-30T13:55:54;5.78;;;2.28;;
38457;SDS011;24239;48.058;10.486;2023-07-30T13:58:20;4.82;;;2.15;;
38457;SDS011;24239;48.058;10.486;2023-07-30T14:00:46;2.40;;;2.20;;
38457;SDS011;24239;48.058;10.486;2023-07-30T14:03:11;2.60;;;2.00;;
38457;SDS011;24239;48.058;10.486;2023-07-30T14:05:38;3.00;;;2.08;;
38457;SDS011;24239;48.058;10.486;2023-07-30T14:08:04;2.78;;;2.00;;
38457;SDS011;24239;48.058;10.486;2023-07-30T14:10:30;3.90;;;1.92;;
38457;SDS011;24239;48.058;10.486;2023-07-30T14:12:56;3.67;;;2.13;;
38457;SDS011;24239;48.058;10.486;2023-07-30T14:15:21;2.95;;;2.20;;
38457;SDS011;24239;48.058;10.486;2023-07-30T14:17:47;4.45;;;2.10;;
38457;SDS011;24239;48.058;10.486;2023-07-30T14:20:13;2.30;;;2.10;;
38457;SDS011;24239;48.058;10.486;2023-07-30T14:22:39;2.75;;;2.15;;
38457;SDS011;24239;48.058;10.486;2023-07-30T14:25:04;2.22;;;1.90;;
38457;SDS011;24239;48.058;10.486;2023-07-30T14:27:30;2.30;;;2.05;;
38457;SDS011;24239;48.058;10.486;2023-07-30T14:29:59;3.80;;;2.15;;
38457;SDS011;24239;48.058;10.486;2023-07-30T14:32:25;2.83;;;1.80;;
38457;SDS011;24239;48.058;10.486;2023-07-30T14:34:51;2.33;;;2.10;;
38457;SDS011;24239;48.058;10.486;2023-07-30T14:37:16;4.28;;;2.22;;